createdAt,value
2017-02-13T00:00:18.389Z,-1.48
2017-02-13T00:01:19.091Z,-1.61
2017-02-13T00:02:19.776Z,-1.51
2017-02-13T00:03:20.497Z,-1.48
2017-02-13T00:04:21.189Z,-1.53
2017-02-13T00:05:21.914Z,-1.56
2017-02-13T00:06:22.615Z,-1.53
2017-02-13T00:07:23.305Z,-1.68
2017-02-13T00:08:24.036Z,-1.54
2017-02-13T00:09:24.768Z,-1.65
2017-02-13T00:10:25.469Z,-1.64
2017-02-13T00:11:26.175Z,-1.59
2017-02-13T00:12:26.880Z,-1.53
2017-02-13T00:13:27.584Z,-1.65
2017-02-13T00:14:28.293Z,-1.64
2017-02-13T00:15:29.027Z,-1.66
2017-02-13T00:16:29.851Z,-1.65
2017-02-13T00:17:30.568Z,-1.68
2017-02-13T00:18:31.316Z,-1.64
2017-02-13T00:19:32.036Z,-1.66
2017-02-13T00:20:32.751Z,-1.68
2017-02-13T00:21:33.499Z,-1.68
2017-02-13T00:22:34.237Z,-1.69
2017-02-13T00:23:34.977Z,-1.62
2017-02-13T00:24:35.666Z,-1.65
2017-02-13T00:25:36.364Z,-1.72
2017-02-13T00:26:37.080Z,-1.69
2017-02-13T00:27:37.762Z,-1.62
2017-02-13T00:28:38.517Z,-1.66
2017-02-13T00:29:39.227Z,-1.64
2017-02-13T00:30:39.941Z,-1.66
2017-02-13T00:31:40.649Z,-1.59
2017-02-13T00:32:41.425Z,-1.56
2017-02-13T00:33:42.143Z,-1.66
2017-02-13T00:34:42.845Z,-1.65
2017-02-13T00:35:43.551Z,-1.69
2017-02-13T00:36:44.239Z,-1.68
2017-02-13T00:37:45.003Z,-1.69
2017-02-13T00:38:45.834Z,-1.68
2017-02-13T00:39:46.565Z,-1.68
2017-02-13T00:40:47.284Z,-1.69
2017-02-13T00:41:47.993Z,-1.65
2017-02-13T00:42:48.722Z,-1.66
2017-02-13T00:43:49.422Z,-1.65
2017-02-13T00:44:50.255Z,-1.66
2017-02-13T00:45:50.950Z,-1.62
2017-02-13T00:46:52.489Z,-1.71
2017-02-13T00:47:53.310Z,-1.62
2017-02-13T00:48:54.127Z,-1.74
2017-02-13T00:49:54.876Z,-1.69
2017-02-13T00:50:55.613Z,-1.68
2017-02-13T00:51:56.322Z,-1.69
2017-02-13T00:52:57.034Z,-1.72
2017-02-13T00:53:57.812Z,-1.76
2017-02-13T00:54:58.579Z,-1.87
2017-02-13T00:55:59.283Z,-1.84
2017-02-13T00:56:59.987Z,-1.87
2017-02-13T00:58:00.770Z,-1.84
2017-02-13T00:59:01.456Z,-1.84
2017-02-13T01:00:02.175Z,-1.82
2017-02-13T01:01:02.925Z,-1.79
2017-02-13T01:02:03.586Z,-1.84
2017-02-13T01:03:04.346Z,-1.86
2017-02-13T01:04:05.171Z,-1.82
2017-02-13T01:05:05.852Z,-1.86
2017-02-13T01:06:06.543Z,-1.86
2017-02-13T01:07:07.264Z,-1.97
2017-02-13T01:08:08.050Z,-1.9
2017-02-13T01:09:08.779Z,-1.82
2017-02-13T01:10:09.493Z,-1.89
2017-02-13T01:11:10.209Z,-1.86
2017-02-13T01:12:10.918Z,-1.9
2017-02-13T01:13:11.643Z,-1.92
2017-02-13T01:14:12.364Z,-1.86
2017-02-13T01:15:13.092Z,-2
2017-02-13T01:16:13.795Z,-1.95
2017-02-13T01:17:14.511Z,-1.95
2017-02-13T01:18:15.219Z,-1.95
2017-02-13T01:19:15.922Z,-2.01
2017-02-13T01:20:16.615Z,-2.01
2017-02-13T01:21:17.289Z,-1.97
2017-02-13T01:22:17.992Z,-2.01
2017-02-13T01:23:18.679Z,-1.95
2017-02-13T01:24:19.392Z,-1.97
2017-02-13T01:25:20.097Z,-2.05
2017-02-13T01:26:20.786Z,-2.01
2017-02-13T01:27:21.496Z,-2.02
2017-02-13T01:28:22.212Z,-2.02
2017-02-13T01:29:22.915Z,-2.05
2017-02-13T01:30:23.634Z,-2.05
2017-02-13T01:31:24.354Z,-2.07
2017-02-13T01:32:25.208Z,-1.97
2017-02-13T01:33:25.931Z,-1.94
2017-02-13T01:34:26.635Z,-1.94
2017-02-13T01:35:27.347Z,-2.01
2017-02-13T01:36:28.075Z,-2
2017-02-13T01:37:28.807Z,-2.1
2017-02-13T01:38:29.558Z,-2.08
2017-02-13T01:39:30.302Z,-2
2017-02-13T01:40:31.017Z,-1.97
2017-02-13T01:41:31.699Z,-1.98
2017-02-13T01:42:32.414Z,-2.04
2017-02-13T01:43:33.153Z,-2.05
2017-02-13T01:44:33.828Z,-2.02
2017-02-13T01:45:34.532Z,-2.08
2017-02-13T01:46:35.264Z,-2.07
2017-02-13T01:47:35.969Z,-2.12
2017-02-13T01:48:36.647Z,-2.12
2017-02-13T01:49:37.368Z,-2.15
2017-02-13T01:50:38.079Z,-2.15
2017-02-13T01:51:38.815Z,-2.05
2017-02-13T01:52:39.499Z,-2.1
2017-02-13T01:53:40.192Z,-2.07
2017-02-13T01:54:40.895Z,-2.1
2017-02-13T01:55:41.607Z,-2.13
2017-02-13T01:56:42.316Z,-2.05
2017-02-13T01:57:43.011Z,-2.1
2017-02-13T01:58:43.707Z,-2.18
2017-02-13T01:59:44.410Z,-2.13
2017-02-13T02:00:45.108Z,-2.07
2017-02-13T02:01:45.802Z,-2.07
2017-02-13T02:02:46.495Z,-2.08
2017-02-13T02:03:47.217Z,-2.13
2017-02-13T02:04:48.120Z,-2.08
2017-02-13T02:05:48.804Z,-2.01
2017-02-13T02:06:49.499Z,-2.05
2017-02-13T02:07:50.222Z,-2.05
2017-02-13T02:08:50.937Z,-1.98
2017-02-13T02:09:51.633Z,-2.1
2017-02-13T02:10:52.354Z,-2.07
2017-02-13T02:11:53.037Z,-2.08
2017-02-13T02:12:53.748Z,-2.07
2017-02-13T02:13:54.484Z,-2.1
2017-02-13T02:14:55.235Z,-2.13
2017-02-13T02:15:55.922Z,-2.1
2017-02-13T02:16:56.712Z,-2.08
2017-02-13T02:17:57.406Z,-2
2017-02-13T02:18:58.124Z,-2.04
2017-02-13T02:19:58.855Z,-2.1
2017-02-13T02:20:59.578Z,-2.05
2017-02-13T02:22:00.284Z,-2.01
2017-02-13T02:23:00.965Z,-2.04
2017-02-13T02:24:01.703Z,-2.04
2017-02-13T02:25:02.419Z,-2.05
2017-02-13T02:26:03.128Z,-2.07
2017-02-13T02:27:03.836Z,-2
2017-02-13T02:28:04.528Z,-2
2017-02-13T02:29:05.308Z,-2.05
2017-02-13T02:30:05.946Z,-2.04
2017-02-13T02:31:06.673Z,-2.05
2017-02-13T02:32:07.408Z,-2.05
2017-02-13T02:33:08.130Z,-2.12
2017-02-13T02:34:08.824Z,-2.15
2017-02-13T02:35:09.499Z,-2.12
2017-02-13T02:36:10.190Z,-2.05
2017-02-13T02:37:10.898Z,-2.02
2017-02-13T02:38:11.579Z,-2.12
2017-02-13T02:39:12.327Z,-2.04
2017-02-13T02:40:12.982Z,-2.05
2017-02-13T02:41:13.684Z,-2.1
2017-02-13T02:42:14.412Z,-2.08
2017-02-13T02:43:15.140Z,-2.1
2017-02-13T02:44:15.874Z,-2.07
2017-02-13T02:45:16.648Z,-2.12
2017-02-13T02:46:17.329Z,-2.1
2017-02-13T02:47:18.022Z,-2.12
2017-02-13T02:48:18.753Z,-2.04
2017-02-13T02:49:19.447Z,-2.18
2017-02-13T02:50:20.204Z,-2.08
2017-02-13T02:51:20.898Z,-2
2017-02-13T02:52:21.602Z,-2.08
2017-02-13T02:53:22.296Z,-2.04
2017-02-13T02:54:22.983Z,-2.07
2017-02-13T02:55:23.677Z,-2.01
2017-02-13T02:56:24.360Z,-2.07
2017-02-13T02:57:25.078Z,-2.07
2017-02-13T02:58:25.867Z,-2.08
2017-02-13T02:59:26.557Z,-2.1
2017-02-13T03:00:27.247Z,-2.13
2017-02-13T03:01:27.967Z,-2.15
2017-02-13T03:02:28.662Z,-2.08
2017-02-13T03:03:29.379Z,-2.19
2017-02-13T03:04:30.078Z,-2.07
2017-02-13T03:05:30.781Z,-2.15
2017-02-13T03:06:31.483Z,-2.13
2017-02-13T03:07:32.175Z,-2.15
2017-02-13T03:08:32.888Z,-2.07
2017-02-13T03:09:33.597Z,-2.05
2017-02-13T03:10:34.299Z,-2.1
2017-02-13T03:11:34.997Z,-2.08
2017-02-13T03:12:35.701Z,-2.1
2017-02-13T03:13:36.411Z,-2.12
2017-02-13T03:14:37.094Z,-2.12
2017-02-13T03:15:37.808Z,-2.07
2017-02-13T03:16:38.529Z,-2.12
2017-02-13T03:17:39.260Z,-2.07
2017-02-13T03:18:39.973Z,-2.07
2017-02-13T03:19:40.705Z,-2.12
2017-02-13T03:20:41.411Z,-2.1
2017-02-13T03:21:42.099Z,-2.05
2017-02-13T03:22:42.821Z,-2.1
2017-02-13T03:23:43.539Z,-2.15
2017-02-13T03:24:44.257Z,-2.19
2017-02-13T03:25:44.953Z,-2.21
2017-02-13T03:26:45.658Z,-2.23
2017-02-13T03:27:46.335Z,-2.13
2017-02-13T03:28:47.047Z,-2.19
2017-02-13T03:29:47.772Z,-2.18
2017-02-13T03:30:48.488Z,-2.16
2017-02-13T03:31:49.186Z,-2.23
2017-02-13T03:32:49.905Z,-2.21
2017-02-13T03:33:50.598Z,-2.18
2017-02-13T03:34:51.298Z,-2.18
2017-02-13T03:35:52.017Z,-2.21
2017-02-13T03:36:52.682Z,-2.23
2017-02-13T03:37:53.356Z,-2.16
2017-02-13T03:38:54.102Z,-2.19
2017-02-13T03:39:54.859Z,-2.16
2017-02-13T03:40:55.534Z,-2.22
2017-02-13T03:41:56.257Z,-2.18
2017-02-13T03:42:56.983Z,-2.15
2017-02-13T03:43:57.674Z,-2.19
2017-02-13T03:44:58.370Z,-2.19
2017-02-13T03:45:59.052Z,-2.19
2017-02-13T03:46:59.813Z,-2.21
2017-02-13T03:48:00.503Z,-2.22
2017-02-13T03:49:01.217Z,-2.22
2017-02-13T03:50:01.936Z,-2.22
2017-02-13T03:51:02.673Z,-2.23
2017-02-13T03:52:03.389Z,-2.23
2017-02-13T03:53:04.066Z,-2.19
2017-02-13T03:54:04.781Z,-2.25
2017-02-13T03:55:05.445Z,-2.21
2017-02-13T03:56:06.141Z,-2.26
2017-02-13T03:57:06.897Z,-2.34
2017-02-13T03:58:07.619Z,-2.3
2017-02-13T03:59:08.379Z,-2.3
2017-02-13T04:00:09.075Z,-2.25
2017-02-13T04:01:09.791Z,-2.28
2017-02-13T04:02:10.505Z,-2.26
2017-02-13T04:03:11.205Z,-2.34
2017-02-13T04:04:12.230Z,-2.28
2017-02-13T04:05:12.911Z,-2.34
2017-02-13T04:06:13.628Z,-2.32
2017-02-13T04:07:14.410Z,-2.4
2017-02-13T04:08:15.116Z,-2.38
2017-02-13T04:09:15.794Z,-2.37
2017-02-13T04:10:16.515Z,-2.4
2017-02-13T04:11:17.243Z,-2.4
2017-02-13T04:12:17.962Z,-2.37
2017-02-13T04:13:18.684Z,-2.41
2017-02-13T04:14:19.384Z,-2.41
2017-02-13T04:15:20.075Z,-2.42
2017-02-13T04:16:20.803Z,-2.4
2017-02-13T04:17:21.474Z,-2.38
2017-02-13T04:18:22.181Z,-2.48
2017-02-13T04:19:22.862Z,-2.38
2017-02-13T04:20:23.580Z,-2.41
2017-02-13T04:21:24.285Z,-2.38
2017-02-13T04:22:25.059Z,-2.38
2017-02-13T04:23:25.763Z,-2.38
2017-02-13T04:24:26.470Z,-2.42
2017-02-13T04:25:27.153Z,-2.42
2017-02-13T04:26:27.830Z,-2.42
2017-02-13T04:27:28.543Z,-2.45
2017-02-13T04:28:29.231Z,-2.4
2017-02-13T04:29:29.939Z,-2.47
2017-02-13T04:30:30.630Z,-2.44
2017-02-13T04:31:31.338Z,-2.45
2017-02-13T04:32:32.030Z,-2.48
2017-02-13T04:33:32.748Z,-2.52
2017-02-13T04:34:33.467Z,-2.48
2017-02-13T04:35:34.151Z,-2.52
2017-02-13T04:36:34.863Z,-2.52
2017-02-13T04:37:35.541Z,-2.5
2017-02-13T04:38:36.260Z,-2.52
2017-02-13T04:39:36.958Z,-2.59
2017-02-13T04:40:37.664Z,-2.55
2017-02-13T04:41:38.383Z,-2.48
2017-02-13T04:42:39.053Z,-2.52
2017-02-13T04:43:39.775Z,-2.56
2017-02-13T04:44:40.536Z,-2.65
2017-02-13T04:45:41.229Z,-2.52
2017-02-13T04:46:41.945Z,-2.6
2017-02-13T04:47:42.675Z,-2.63
2017-02-13T04:48:43.399Z,-2.59
2017-02-13T04:49:44.100Z,-2.59
2017-02-13T04:50:44.793Z,-2.6
2017-02-13T04:51:45.484Z,-2.62
2017-02-13T04:52:46.189Z,-2.7
2017-02-13T04:53:46.897Z,-2.63
2017-02-13T04:54:47.584Z,-2.65
2017-02-13T04:55:48.276Z,-2.59
2017-02-13T04:56:48.962Z,-2.65
2017-02-13T04:57:49.654Z,-2.65
2017-02-13T04:58:50.374Z,-2.59
2017-02-13T04:59:51.071Z,-2.6
2017-02-13T05:00:51.764Z,-2.62
2017-02-13T05:01:52.467Z,-2.58
2017-02-13T05:02:53.182Z,-2.63
2017-02-13T05:03:53.851Z,-2.59
2017-02-13T05:04:54.550Z,-2.65
2017-02-13T05:05:55.247Z,-2.62
2017-02-13T05:06:55.959Z,-2.56
2017-02-13T05:07:56.660Z,-2.59
2017-02-13T05:08:57.365Z,-2.66
2017-02-13T05:09:58.080Z,-2.59
2017-02-13T05:10:58.779Z,-2.59
2017-02-13T05:11:59.469Z,-2.55
2017-02-13T05:13:00.163Z,-2.59
2017-02-13T05:14:00.861Z,-2.6
2017-02-13T05:15:01.566Z,-2.59
2017-02-13T05:16:02.258Z,-2.62
2017-02-13T05:17:02.984Z,-2.62
2017-02-13T05:18:03.690Z,-2.63
2017-02-13T05:19:04.380Z,-2.74
2017-02-13T05:20:05.416Z,-2.71
2017-02-13T05:21:06.668Z,-2.7
2017-02-13T05:22:07.388Z,-2.71
2017-02-13T05:23:08.107Z,-2.65
2017-02-13T05:24:08.811Z,-2.7
2017-02-13T05:25:09.539Z,-2.7
2017-02-13T05:26:10.264Z,-2.73
2017-02-13T05:27:10.959Z,-2.77
2017-02-13T05:28:11.666Z,-2.7
2017-02-13T05:29:12.354Z,-2.73
2017-02-13T05:30:13.049Z,-2.73
2017-02-13T05:31:13.727Z,-2.7
2017-02-13T05:32:14.411Z,-2.71
2017-02-13T05:33:15.129Z,-2.71
2017-02-13T05:34:15.837Z,-2.74
2017-02-13T05:35:16.523Z,-2.66
2017-02-13T05:36:17.243Z,-2.78
2017-02-13T05:37:17.981Z,-2.66
2017-02-13T05:38:18.681Z,-2.7
2017-02-13T05:39:19.380Z,-2.7
2017-02-13T05:40:20.097Z,-2.7
2017-02-13T05:41:20.773Z,-2.78
2017-02-13T05:42:21.484Z,-2.84
2017-02-13T05:43:22.165Z,-2.84
2017-02-13T05:44:22.873Z,-2.78
2017-02-13T05:45:23.541Z,-2.89
2017-02-13T05:46:24.258Z,-2.83
2017-02-13T05:47:24.955Z,-2.76
2017-02-13T05:48:25.665Z,-2.86
2017-02-13T05:49:26.372Z,-2.91
2017-02-13T05:50:27.062Z,-2.76
2017-02-13T05:51:27.731Z,-2.81
2017-02-13T05:52:28.433Z,-2.95
2017-02-13T05:53:29.134Z,-2.92
2017-02-13T05:54:29.829Z,-2.88
2017-02-13T05:55:30.513Z,-2.88
2017-02-13T05:56:31.227Z,-2.89
2017-02-13T05:57:31.927Z,-2.88
2017-02-13T05:58:32.632Z,-2.92
2017-02-13T05:59:33.320Z,-3.04
2017-02-13T06:00:34.037Z,-2.88
2017-02-13T06:01:34.750Z,-2.95
2017-02-13T06:02:35.486Z,-2.92
2017-02-13T06:03:36.203Z,-2.89
2017-02-13T06:04:36.908Z,-2.89
2017-02-13T06:05:37.595Z,-2.88
2017-02-13T06:06:38.307Z,-2.91
2017-02-13T06:07:38.992Z,-2.89
2017-02-13T06:08:39.690Z,-2.78
2017-02-13T06:09:40.386Z,-2.88
2017-02-13T06:10:41.072Z,-2.88
2017-02-13T06:11:41.861Z,-2.91
2017-02-13T06:12:42.563Z,-2.83
2017-02-13T06:13:43.281Z,-2.91
2017-02-13T06:14:43.988Z,-2.94
2017-02-13T06:15:44.682Z,-2.95
2017-02-13T06:16:45.383Z,-2.92
2017-02-13T06:17:46.063Z,-2.94
2017-02-13T06:18:46.737Z,-3.07
2017-02-13T06:19:47.446Z,-3.01
2017-02-13T06:20:48.126Z,-3.04
2017-02-13T06:21:48.911Z,-2.99
2017-02-13T06:22:49.613Z,-2.99
2017-02-13T06:23:50.302Z,-2.98
2017-02-13T06:24:51.077Z,-3.09
2017-02-13T06:25:51.936Z,-3.01
2017-02-13T06:26:52.779Z,-3.09
2017-02-13T06:27:53.476Z,-2.98
2017-02-13T06:28:54.180Z,-3.1
2017-02-13T06:29:54.919Z,-3.15
2017-02-13T06:30:55.610Z,-3.07
2017-02-13T06:31:56.278Z,-3.02
2017-02-13T06:32:56.952Z,-3.09
2017-02-13T06:33:57.630Z,-2.98
2017-02-13T06:34:58.306Z,-3.01
2017-02-13T06:35:58.969Z,-3.04
2017-02-13T06:36:59.666Z,-3.02
2017-02-13T06:38:00.379Z,-3.09
2017-02-13T06:39:01.092Z,-3.12
2017-02-13T06:40:01.783Z,-3.15
2017-02-13T06:41:02.499Z,-3.02
2017-02-13T06:42:03.214Z,-3.13
2017-02-13T06:43:03.904Z,-3.07
2017-02-13T06:44:04.605Z,-3.12
2017-02-13T06:45:05.324Z,-3.12
2017-02-13T06:46:06.007Z,-3.12
2017-02-13T06:47:06.682Z,-3.07
2017-02-13T06:48:07.445Z,-3.04
2017-02-13T06:49:08.161Z,-3.04
2017-02-13T06:50:08.842Z,-3.01
2017-02-13T06:51:09.535Z,-3.06
2017-02-13T06:52:10.231Z,-3.07
2017-02-13T06:53:10.950Z,-2.98
2017-02-13T06:54:11.645Z,-3.1
2017-02-13T06:55:12.357Z,-3.04
2017-02-13T06:56:13.054Z,-3.06
2017-02-13T06:57:13.782Z,-3.07
2017-02-13T06:58:14.488Z,-3.01
2017-02-13T06:59:15.207Z,-2.99
2017-02-13T07:00:15.893Z,-3.06
2017-02-13T07:01:16.607Z,-2.92
2017-02-13T07:02:17.277Z,-2.92
2017-02-13T07:03:17.952Z,-3.09
2017-02-13T07:04:18.690Z,-3.09
2017-02-13T07:05:19.383Z,-3.1
2017-02-13T07:06:20.094Z,-3.15
2017-02-13T07:07:20.792Z,-3.12
2017-02-13T07:08:21.497Z,-3.06
2017-02-13T07:09:22.194Z,-3.13
2017-02-13T07:10:22.877Z,-3.1
2017-02-13T07:11:23.595Z,-3.06
2017-02-13T07:12:24.358Z,-3.1
2017-02-13T07:13:25.028Z,-3.16
2017-02-13T07:14:25.753Z,-3.12
2017-02-13T07:15:26.453Z,-3.12
2017-02-13T07:16:27.161Z,-3.15
2017-02-13T07:17:27.846Z,-3.19
2017-02-13T07:18:28.540Z,-3.13
2017-02-13T07:19:29.247Z,-3.16
2017-02-13T07:20:29.983Z,-3.15
2017-02-13T07:21:30.668Z,-3.12
2017-02-13T07:22:31.344Z,-3.13
2017-02-13T07:23:32.056Z,-3.15
2017-02-13T07:24:32.752Z,-3.06
2017-02-13T07:25:33.460Z,-3.07
2017-02-13T07:26:34.166Z,-3.06
2017-02-13T07:27:34.848Z,-3.17
2017-02-13T07:28:35.555Z,-3.04
2017-02-13T07:29:36.255Z,-3.12
2017-02-13T07:30:36.938Z,-3.07
2017-02-13T07:31:37.643Z,-2.98
2017-02-13T07:32:38.356Z,-2.99
2017-02-13T07:33:39.054Z,-3.02
2017-02-13T07:34:39.777Z,-2.94
2017-02-13T07:35:40.490Z,-2.91
2017-02-13T07:36:41.204Z,-2.92
2017-02-13T07:37:41.910Z,-2.92
2017-02-13T07:38:42.624Z,-2.83
2017-02-13T07:39:43.342Z,-2.94
2017-02-13T07:40:44.045Z,-2.94
2017-02-13T07:41:44.744Z,-2.94
2017-02-13T07:42:45.444Z,-2.91
2017-02-13T07:43:46.176Z,-2.89
2017-02-13T07:44:46.854Z,-2.91
2017-02-13T07:45:47.616Z,-2.89
2017-02-13T07:46:48.338Z,-2.91
2017-02-13T07:47:49.040Z,-2.83
2017-02-13T07:48:49.769Z,-2.8
2017-02-13T07:49:50.477Z,-2.76
2017-02-13T07:50:51.207Z,-2.78
2017-02-13T07:51:51.963Z,-2.86
2017-02-13T07:52:52.663Z,-2.95
2017-02-13T07:53:53.371Z,-2.88
2017-02-13T07:54:54.067Z,-2.88
2017-02-13T07:55:54.781Z,-2.83
2017-02-13T07:56:55.475Z,-2.78
2017-02-13T07:57:56.183Z,-2.73
2017-02-13T07:58:56.905Z,-2.69
2017-02-13T07:59:57.609Z,-2.63
2017-02-13T08:00:58.306Z,-2.53
2017-02-13T08:01:59.027Z,-2.45
2017-02-13T08:02:59.727Z,-2.65
2017-02-13T08:04:00.418Z,-2.56
2017-02-13T08:05:01.097Z,-2.5
2017-02-13T08:06:01.805Z,-2.42
2017-02-13T08:07:02.503Z,-2.47
2017-02-13T08:08:03.216Z,-2.55
2017-02-13T08:09:03.916Z,-2.55
2017-02-13T08:10:04.602Z,-2.55
2017-02-13T08:11:05.316Z,-2.63
2017-02-13T08:12:06.007Z,-2.6
2017-02-13T08:13:06.716Z,-2.55
2017-02-13T08:14:07.419Z,-2.44
2017-02-13T08:15:08.121Z,-2.41
2017-02-13T08:16:08.840Z,-2.28
2017-02-13T08:17:09.548Z,-2.28
2017-02-13T08:18:10.266Z,-2.34
2017-02-13T08:19:10.957Z,-2.37
2017-02-13T08:20:11.706Z,-2.37
2017-02-13T08:21:12.479Z,-2.38
2017-02-13T08:22:13.230Z,-2.41
2017-02-13T08:23:13.938Z,-2.34
2017-02-13T08:24:14.661Z,-2.22
2017-02-13T08:25:15.359Z,-2.18
2017-02-13T08:26:16.057Z,-2.18
2017-02-13T08:27:16.781Z,-2.28
2017-02-13T08:28:17.606Z,-2.25
2017-02-13T08:29:18.447Z,-2.22
2017-02-13T08:30:19.170Z,-2.16
2017-02-13T08:31:19.881Z,-2.22
2017-02-13T08:32:20.577Z,-2.18
2017-02-13T08:33:21.277Z,-2.12
2017-02-13T08:34:21.970Z,-2.16
2017-02-13T08:35:22.693Z,-2.07
2017-02-13T08:36:23.404Z,-2.12
2017-02-13T08:37:24.123Z,-2.12
2017-02-13T08:38:24.851Z,-2.07
2017-02-13T08:39:25.543Z,-2.1
2017-02-13T08:40:26.281Z,-2.13
2017-02-13T08:41:27.032Z,-2.07
2017-02-13T08:42:27.989Z,-1.97
2017-02-13T08:43:28.695Z,-1.94
2017-02-13T08:44:29.417Z,-1.87
2017-02-13T08:45:30.138Z,-1.98
2017-02-13T08:46:30.849Z,-1.9
2017-02-13T08:47:31.549Z,-1.89
2017-02-13T08:48:32.298Z,-1.89
2017-02-13T08:49:33.031Z,-1.8
2017-02-13T08:50:33.723Z,-1.86
2017-02-13T08:51:34.445Z,-1.8
2017-02-13T08:52:35.156Z,-1.74
2017-02-13T08:53:35.848Z,-1.66
2017-02-13T08:54:36.583Z,-1.84
2017-02-13T08:55:37.289Z,-1.69
2017-02-13T08:56:38.006Z,-1.68
2017-02-13T08:57:38.722Z,-1.5
2017-02-13T08:58:39.607Z,-1.46
2017-02-13T08:59:40.329Z,-1.66
2017-02-13T09:00:41.040Z,-1.77
2017-02-13T09:01:41.727Z,-1.68
2017-02-13T09:02:42.424Z,-1.54
2017-02-13T09:03:43.141Z,-1.44
2017-02-13T09:04:43.871Z,-1.37
2017-02-13T09:05:44.584Z,-1.25
2017-02-13T09:06:45.279Z,-1.11
2017-02-13T09:07:45.979Z,-1.02
2017-02-13T09:08:46.711Z,-0.97
2017-02-13T09:09:47.434Z,-0.89
2017-02-13T09:10:48.176Z,-0.86
2017-02-13T09:11:48.887Z,-1.11
2017-02-13T09:12:49.626Z,-1.09
2017-02-13T09:13:50.332Z,-1.23
2017-02-13T09:14:51.019Z,-1.3
2017-02-13T09:15:51.749Z,-1.33
2017-02-13T09:16:52.463Z,-1.44
2017-02-13T09:17:53.185Z,-1.38
2017-02-13T09:18:53.873Z,-1.44
2017-02-13T09:19:54.579Z,-1.44
2017-02-13T09:20:55.309Z,-1.61
2017-02-13T09:21:56.000Z,-1.46
2017-02-13T09:22:56.714Z,-1.47
2017-02-13T09:23:57.422Z,-1.48
2017-02-13T09:24:58.132Z,-1.46
2017-02-13T09:25:58.839Z,-1.58
2017-02-13T09:26:59.555Z,-1.46
2017-02-13T09:28:00.283Z,-1.47
2017-02-13T09:29:00.991Z,-1.46
2017-02-13T09:30:01.683Z,-1.38
2017-02-13T09:31:02.385Z,-1.37
2017-02-13T09:32:03.109Z,-1.46
2017-02-13T09:33:03.827Z,-1.54
2017-02-13T09:34:04.550Z,-1.59
2017-02-13T09:35:05.283Z,-1.4
2017-02-13T09:36:05.995Z,-1.35
2017-02-13T09:37:06.692Z,-1.27
2017-02-13T09:38:07.444Z,-1.26
2017-02-13T09:39:08.172Z,-1.3
2017-02-13T09:40:08.871Z,-1.22
2017-02-13T09:41:09.594Z,-1.29
2017-02-13T09:42:10.286Z,-1.25
2017-02-13T09:43:10.984Z,-1.25
2017-02-13T09:44:11.692Z,-1.22
2017-02-13T09:45:12.391Z,-1.23
2017-02-13T09:46:13.104Z,-1.12
2017-02-13T09:47:13.847Z,-1.08
2017-02-13T09:48:14.539Z,-1.02
2017-02-13T09:49:15.277Z,-1.2
2017-02-13T09:50:15.981Z,-1.22
2017-02-13T09:51:16.746Z,-1.26
2017-02-13T09:52:17.439Z,-1.19
2017-02-13T09:53:18.167Z,-1.19
2017-02-13T09:54:18.878Z,-1.09
2017-02-13T09:55:19.609Z,-1.12
2017-02-13T09:56:20.317Z,-1.05
2017-02-13T09:57:21.043Z,-0.99
2017-02-13T09:58:21.757Z,-0.94
2017-02-13T09:59:22.457Z,-0.89
2017-02-13T10:00:23.207Z,-0.93
2017-02-13T10:01:23.902Z,-0.93
2017-02-13T10:02:24.632Z,-0.9
2017-02-13T10:03:25.339Z,-0.91
2017-02-13T10:04:26.049Z,-0.83
2017-02-13T10:05:26.742Z,-0.78
2017-02-13T10:06:27.460Z,-0.8
2017-02-13T10:07:28.172Z,-0.74
2017-02-13T10:08:28.858Z,-0.72
2017-02-13T10:09:29.584Z,-0.8
2017-02-13T10:10:30.286Z,-0.8
2017-02-13T10:11:30.978Z,-0.72
2017-02-13T10:12:31.705Z,-0.72
2017-02-13T10:13:32.410Z,-0.72
2017-02-13T10:14:33.134Z,-0.71
2017-02-13T10:15:33.849Z,-0.62
2017-02-13T10:16:34.609Z,-0.59
2017-02-13T10:17:35.305Z,-0.5
2017-02-13T10:18:36.121Z,-0.49
2017-02-13T10:19:36.854Z,-0.62
2017-02-13T10:20:37.616Z,-0.54
2017-02-13T10:21:38.347Z,-0.39
2017-02-13T10:22:39.036Z,-0.35
2017-02-13T10:23:39.739Z,-0.36
2017-02-13T10:24:40.425Z,-0.26
2017-02-13T10:25:41.133Z,-0.26
2017-02-13T10:26:41.859Z,-0.32
2017-02-13T10:27:42.570Z,-0.29
2017-02-13T10:28:43.279Z,-0.31
2017-02-13T10:29:43.997Z,-0.15
2017-02-13T10:30:44.704Z,-0.34
2017-02-13T10:31:45.390Z,-0.34
2017-02-13T10:32:46.119Z,-0.28
2017-02-13T10:33:46.828Z,-0.25
2017-02-13T10:34:47.537Z,-0.21
2017-02-13T10:35:48.264Z,-0.25
2017-02-13T10:36:49.006Z,-0.25
2017-02-13T10:37:49.734Z,-0.2
2017-02-13T10:38:50.447Z,-0.15
2017-02-13T10:39:51.164Z,-0.06
2017-02-13T10:40:51.888Z,0
2017-02-13T10:41:52.567Z,0.07
2017-02-13T10:42:53.277Z,0.1
2017-02-13T10:43:53.968Z,0.18
2017-02-13T10:44:54.677Z,0.11
2017-02-13T10:45:55.376Z,0.1
2017-02-13T10:46:56.088Z,0.03
2017-02-13T10:47:56.808Z,0.16
2017-02-13T10:48:57.555Z,0.07
2017-02-13T10:49:58.287Z,0.18
2017-02-13T10:50:58.981Z,0.16
2017-02-13T10:51:59.701Z,0.26
2017-02-13T10:53:00.408Z,0.31
2017-02-13T10:54:01.111Z,0.26
2017-02-13T10:55:01.865Z,0.31
2017-02-13T10:56:02.616Z,0.21
2017-02-13T10:57:03.342Z,0.32
2017-02-13T10:58:04.040Z,0.34
2017-02-13T10:59:04.745Z,0.41
2017-02-13T11:00:05.437Z,0.5
2017-02-13T11:01:06.163Z,0.4
2017-02-13T11:02:06.882Z,0.41
2017-02-13T11:03:07.606Z,0.41
2017-02-13T11:04:08.409Z,0.41
2017-02-13T11:05:09.141Z,0.32
2017-02-13T11:06:09.856Z,0.52
2017-02-13T11:07:10.577Z,0.43
2017-02-13T11:08:11.289Z,0.49
2017-02-13T11:09:12.007Z,0.59
2017-02-13T11:10:12.737Z,0.63
2017-02-13T11:11:13.456Z,0.65
2017-02-13T11:12:14.205Z,0.66
2017-02-13T11:13:14.937Z,0.83
2017-02-13T11:14:15.650Z,0.8
2017-02-13T11:15:16.375Z,0.86
2017-02-13T11:16:17.075Z,0.87
2017-02-13T11:17:17.784Z,0.84
2017-02-13T11:18:18.490Z,0.99
2017-02-13T11:19:19.231Z,0.95
2017-02-13T11:20:19.969Z,1.01
2017-02-13T11:21:20.661Z,1.05
2017-02-13T11:22:21.391Z,1.04
2017-02-13T11:23:22.142Z,1.04
2017-02-13T11:24:22.875Z,1.08
2017-02-13T11:25:23.601Z,1.04
2017-02-13T11:26:24.324Z,1.14
2017-02-13T11:27:25.033Z,1.16
2017-02-13T11:28:25.746Z,1.16
2017-02-13T11:29:26.469Z,1.26
2017-02-13T11:30:27.202Z,1.13
2017-02-13T11:31:27.920Z,1.16
2017-02-13T11:32:28.647Z,1.14
2017-02-13T11:33:29.363Z,1.19
2017-02-13T11:34:30.075Z,1.28
2017-02-13T11:35:30.811Z,1.23
2017-02-13T11:36:31.532Z,1.34
2017-02-13T11:37:32.375Z,1.3
2017-02-13T11:38:33.141Z,1.38
2017-02-13T11:39:33.881Z,1.38
2017-02-13T11:40:34.573Z,1.49
2017-02-13T11:41:35.271Z,1.49
2017-02-13T11:42:35.969Z,1.52
2017-02-13T11:43:36.683Z,1.41
2017-02-13T11:44:37.406Z,1.44
2017-02-13T11:45:38.152Z,1.49
2017-02-13T11:46:38.901Z,1.5
2017-02-13T11:47:39.598Z,1.59
2017-02-13T11:48:40.345Z,1.62
2017-02-13T11:49:41.100Z,1.62
2017-02-13T11:50:41.793Z,1.66
2017-02-13T11:51:42.522Z,1.6
2017-02-13T11:52:43.211Z,1.7
2017-02-13T11:53:43.927Z,1.5
2017-02-13T11:54:44.660Z,1.52
2017-02-13T11:55:45.359Z,1.55
2017-02-13T11:56:46.080Z,1.63
2017-02-13T11:57:46.784Z,1.66
2017-02-13T11:58:47.480Z,1.76
2017-02-13T11:59:48.204Z,1.87
2017-02-13T12:00:48.924Z,1.73
2017-02-13T12:01:49.637Z,1.81
2017-02-13T12:02:50.330Z,1.89
2017-02-13T12:03:51.039Z,1.92
2017-02-13T12:04:51.756Z,1.95
2017-02-13T12:05:52.467Z,2
2017-02-13T12:06:53.162Z,1.89
2017-02-13T12:07:53.890Z,2.04
2017-02-13T12:08:54.586Z,2.1
2017-02-13T12:09:55.299Z,2.18
2017-02-13T12:10:56.006Z,2.14
2017-02-13T12:11:56.728Z,2.14
2017-02-13T12:12:57.448Z,2.18
2017-02-13T12:13:58.151Z,2.2
2017-02-13T12:14:58.866Z,2.31
2017-02-13T12:15:59.601Z,2.29
2017-02-13T12:17:00.334Z,2.24
2017-02-13T12:18:01.059Z,2.22
2017-02-13T12:19:01.771Z,2.22
2017-02-13T12:20:02.475Z,2.26
2017-02-13T12:21:03.168Z,2.33
2017-02-13T12:22:03.880Z,2.31
2017-02-13T12:23:04.584Z,2.33
2017-02-13T12:24:05.286Z,2.36
2017-02-13T12:25:06.000Z,2.31
2017-02-13T12:26:06.717Z,2.32
2017-02-13T12:27:07.475Z,2.44
2017-02-13T12:28:08.177Z,2.42
2017-02-13T12:29:08.883Z,2.38
2017-02-13T12:30:09.585Z,2.33
2017-02-13T12:31:10.287Z,2.26
2017-02-13T12:32:11.007Z,2.32
2017-02-13T12:33:11.733Z,2.39
2017-02-13T12:34:12.514Z,2.39
2017-02-13T12:35:13.251Z,2.44
2017-02-13T12:36:13.962Z,2.44
2017-02-13T12:37:14.656Z,2.39
2017-02-13T12:38:15.370Z,2.39
2017-02-13T12:39:16.112Z,2.46
2017-02-13T12:40:16.864Z,2.38
2017-02-13T12:41:17.560Z,2.49
2017-02-13T12:42:18.307Z,2.57
2017-02-13T12:43:19.000Z,2.53
2017-02-13T12:45:31.428Z,2.54
2017-02-13T12:45:31.875Z,2.49
2017-02-13T12:46:21.277Z,2.62
2017-02-13T12:47:21.950Z,2.62
2017-02-13T12:48:22.643Z,2.62
2017-02-13T12:49:23.352Z,2.56
2017-02-13T12:50:24.069Z,2.64
2017-02-13T12:51:24.797Z,2.64
2017-02-13T12:52:25.524Z,2.6
2017-02-13T12:53:26.233Z,2.64
2017-02-13T12:54:26.943Z,2.65
2017-02-13T12:55:27.680Z,2.57
2017-02-13T12:56:28.382Z,2.67
2017-02-13T12:57:29.094Z,2.64
2017-02-13T12:58:29.812Z,2.67
2017-02-13T12:59:30.559Z,2.65
2017-02-13T13:00:31.281Z,2.69
2017-02-13T13:01:32.000Z,2.67
2017-02-13T13:02:32.706Z,2.71
2017-02-13T13:03:33.432Z,2.67
2017-02-13T13:04:34.114Z,2.72
2017-02-13T13:05:34.946Z,2.79
2017-02-13T13:06:35.650Z,2.8
2017-02-13T13:07:36.359Z,2.75
2017-02-13T13:08:37.069Z,2.77
2017-02-13T13:09:37.770Z,2.79